»·PEaware :: AAL405 KSNA-KSBA

AAL405 :: KSNA-KSBA

FLIGHT INFORMATION

Flight Status: Arrived
Operator:
American Airlines
More flights by this operator :: More flights under this callsign
Pilot: Anonymous 39875 (39875)
Aircraft: EMBRAER EMB-170/175
(E170)
More flights by this aircraft type
Origin: KSNA John Wayne-Orange Co
United States
Destination: KSBA Santa Barbara Mun
United States
More flights between these airports :: More routes between these airports
Route: CHANL3 SXC V208 VTU VTU282 KWANG
File this flight plan on PilotEdge
Remarks:
Altitude:
(Current/Filed)
10,000ft
Speed:
(Current/Filed)
322kts
Departed: 22-Jul-22 09:45 AM
Arrived: 22-Jul-22 10:23 AM
Distance/Time
Traveled:
108nm/0:38
Distance/Time
To Go:
Arrived

Flight Plot

Page will automatically refresh every two minutes.

Flight plan parsing failed; only flown route is shown


Map Options




Map Legend


Flown Route
Filed Route
Departure Airport
Arrival Airport
Navaid (VOR, NDB)
Fix

Horizontal Profiles

Position Reports

Time Latitude Longitude Heading Altitude Ground
Speed
22-Jul-22 09:28 33.678157 -117.863117 118 66ft 0kts
22-Jul-22 09:29 33.678157 -117.863117 118 66ft 0kts
22-Jul-22 09:30 33.678157 -117.863117 118 66ft 0kts
22-Jul-22 09:31 33.678157 -117.863117 118 66ft 0kts
22-Jul-22 09:32 33.678157 -117.863117 118 66ft 0kts
22-Jul-22 09:33 33.678157 -117.863117 118 66ft 0kts
22-Jul-22 09:34 33.678157 -117.863117 118 66ft 0kts
22-Jul-22 09:35 33.678157 -117.863117 118 66ft 0kts
22-Jul-22 09:36 33.678157 -117.863117 118 66ft 0kts
22-Jul-22 09:37 33.678157 -117.863117 118 66ft 0kts
22-Jul-22 09:38 33.678157 -117.863117 118 66ft 0kts
22-Jul-22 09:39 33.678157 -117.863117 118 66ft 0kts
22-Jul-22 09:40 33.678323 -117.863659 87 66ft 2kts
22-Jul-22 09:41 33.678155 -117.863924 27 66ft 0kts
22-Jul-22 09:42 33.678155 -117.863924 27 66ft 0kts
22-Jul-22 09:43 33.680320 -117.862626 340 66ft 7kts
22-Jul-22 09:44 33.680555 -117.865720 208 66ft 30kts
22-Jul-22 09:44 33.642663 -117.887108 203 2043ft 196kts
22-Jul-22 09:46 33.577422 -117.900655 193 5512ft 211kts
22-Jul-22 09:47 33.519125 -117.939988 213 8599ft 271kts
22-Jul-22 09:48 33.451960 -117.991158 213 9998ft 294kts
22-Jul-22 09:48 33.394079 -118.035915 213 9994ft 298kts
22-Jul-22 09:49 33.325990 -118.091857 231 10007ft 295kts
22-Jul-22 09:51 33.325369 -118.201175 285 10022ft 293kts
22-Jul-22 09:52 33.346488 -118.295079 285 10003ft 292kts
22-Jul-22 09:52 33.364116 -118.373390 285 10007ft 292kts
22-Jul-22 09:53 33.400341 -118.458659 309 10006ft 292kts
22-Jul-22 09:54 33.452968 -118.532324 311 9996ft 290kts
22-Jul-22 09:55 33.505499 -118.605955 310 9992ft 290kts
22-Jul-22 09:56 33.559011 -118.682058 309 11633ft 324kts
22-Jul-22 09:57 33.619528 -118.768663 309 11990ft 346kts
22-Jul-22 09:58 33.681685 -118.857946 309 11989ft 349kts
22-Jul-22 09:59 33.715436 -118.906517 309 11987ft 349kts
22-Jul-22 10:00 33.741943 -118.944722 309 11996ft 349kts
22-Jul-22 10:01 33.819557 -119.010001 343 11996ft 350kts
22-Jul-22 10:02 33.915345 -119.029147 354 11993ft 349kts
22-Jul-22 10:03 34.011968 -119.039058 355 11993ft 348kts
22-Jul-22 10:04 34.104429 -119.065596 321 11970ft 339kts
22-Jul-22 10:05 34.157064 -119.150897 300 10277ft 304kts
22-Jul-22 10:06 34.193977 -119.237255 299 8549ft 276kts
22-Jul-22 10:07 34.227770 -119.318465 299 7989ft 267kts
22-Jul-22 10:08 34.261122 -119.398550 299 8000ft 266kts
22-Jul-22 10:09 34.294343 -119.478493 299 7986ft 265kts
22-Jul-22 10:10 34.310983 -119.565570 273 6214ft 272kts
22-Jul-22 10:11 34.309273 -119.655836 271 4450ft 264kts
22-Jul-22 10:12 34.308955 -119.742966 272 3992ft 257kts
22-Jul-22 10:13 34.313331 -119.829048 280 3166ft 256kts
22-Jul-22 10:14 34.326394 -119.912270 282 2996ft 251kts
22-Jul-22 10:15 34.339708 -119.994795 282 2996ft 251kts
22-Jul-22 10:16 34.362080 -120.072228 321 2990ft 241kts
22-Jul-22 10:17 34.414893 -120.059287 55 3042ft 169kts
22-Jul-22 10:18 34.426107 -120.006603 85 2690ft 158kts
22-Jul-22 10:19 34.425620 -119.955309 90 1607ft 145kts
22-Jul-22 10:20 34.426557 -119.908377 89 893ft 135kts
22-Jul-22 10:21 34.427409 -119.862939 91 202ft 134kts
22-Jul-22 10:22 34.427535 -119.841755 140 23ft 10kts
22-Jul-22 10:23 34.426674 -119.839694 88 23ft 14kts
22-Jul-22 10:24 34.425116 -119.837822 117 23ft 10kts
22-Jul-22 10:25 34.425042 -119.837053 93 23ft 0kts

Navigation Log

Ident Type
Flight plan parsing failed, navigation log unavailable